TimeMST,TemperatureF,Dew PointF,Humidity,Sea Level PressureIn,VisibilityMPH,Wind Direction,Wind SpeedMPH,Gust SpeedMPH,PrecipitationIn,Events,Conditions,WindDirDegrees,DateUTC
12:15 AM,1.4,-2.2,85,30.14,2.5,Calm,Calm,-,N/A,,Clear,0,2013-01-07 07:15:00
12:35 AM,5.0,5.0,100,30.14,2.0,South,4.6,-,N/A,,Clear,170,2013-01-07 07:35:00
12:55 AM,5.0,1.4,85,30.14,2.0,SSW,3.5,-,N/A,,Clear,200,2013-01-07 07:55:00
1:15 AM,3.2,-0.4,85,30.15,2.5,Calm,Calm,-,N/A,,Clear,0,2013-01-07 08:15:00
1:35 AM,3.2,1.4,92,30.14,1.8,Calm,Calm,-,N/A,,Clear,0,2013-01-07 08:35:00
1:55 AM,3.2,1.4,92,30.14,2.0,South,4.6,-,N/A,,Clear,170,2013-01-07 08:55:00
2:15 AM,-0.4,-4.0,85,30.15,2.0,Calm,Calm,-,N/A,,Clear,0,2013-01-07 09:15:00
2:35 AM,1.4,1.4,100,30.15,2.5,Calm,Calm,-,N/A,,Clear,0,2013-01-07 09:35:00
2:55 AM,1.4,-0.4,92,30.15,1.8,Calm,Calm,-,N/A,,Clear,0,2013-01-07 09:55:00
3:15 AM,1.4,-0.4,92,30.14,2.0,Calm,Calm,-,N/A,,Clear,0,2013-01-07 10:15:00
3:35 AM,1.4,-0.4,92,30.14,2.0,Calm,Calm,-,N/A,,Clear,0,2013-01-07 10:35:00
3:55 AM,1.4,1.4,100,30.14,2.0,NW,4.6,-,N/A,,Clear,320,2013-01-07 10:55:00
4:15 AM,1.4,-5.8,72,30.15,2.5,Calm,Calm,-,N/A,,Clear,0,2013-01-07 11:15:00
4:55 AM,1.4,-0.4,92,30.14,2.0,Calm,Calm,-,N/A,,Clear,0,2013-01-07 11:55:00
5:35 AM,-0.4,-0.4,100,30.13,3.0,Calm,Calm,-,N/A,,Clear,0,2013-01-07 12:35:00
5:55 AM,-0.4,-7.6,72,30.12,3.0,SE,3.5,-,N/A,,Clear,130,2013-01-07 12:55:00
6:15 AM,-0.4,-0.4,100,30.13,3.0,NE,3.5,-,N/A,,Partly Cloudy,50,2013-01-07 13:15:00
6:35 AM,-0.4,-2.2,92,30.13,3.0,Calm,Calm,-,N/A,,Partly Cloudy,0,2013-01-07 13:35:00
6:55 AM,1.4,-2.2,85,30.16,3.0,Calm,Calm,-,N/A,,Clear,0,2013-01-07 13:55:00
7:47 AM,1.4,-2.2,85,30.18,2.0,Calm,Calm,-,N/A,,Overcast,0,2013-01-07 14:47:00
8:55 AM,-0.4,-2.2,92,30.21,2.0,Calm,Calm,-,N/A,Snow,Light Snow,0,2013-01-07 15:55:00
9:55 AM,3.2,1.4,92,30.24,2.0,Calm,Calm,-,N/A,Snow,Light Snow,0,2013-01-07 16:55:00
10:50 AM,8.6,8.6,100,30.25,2.0,Calm,Calm,-,N/A,,Clear,0,2013-01-07 17:50:00
12:50 PM,10.4,8.6,92,30.20,2.0,Calm,Calm,-,N/A,,Scattered Clouds,0,2013-01-07 19:50:00
1:50 PM,12.2,8.6,85,30.20,2.0,Calm,Calm,-,N/A,,Scattered Clouds,0,2013-01-07 20:50:00
3:50 PM,14.0,10.4,86,30.19,3.0,Calm,Calm,-,N/A,,Haze,0,2013-01-07 22:50:00
4:50 PM,15.8,10.4,79,30.20,3.0,Calm,Calm,-,N/A,,Haze,0,2013-01-07 23:50:00
5:50 PM,15.8,10.4,79,30.20,3.0,Calm,Calm,-,N/A,,Haze,0,2013-01-08 00:50:00
6:50 PM,14.0,10.4,86,30.20,4.0,Calm,Calm,-,N/A,,Haze,0,2013-01-08 01:50:00
7:50 PM,15.8,12.2,86,30.20,3.0,Calm,Calm,-,N/A,,Haze,0,2013-01-08 02:50:00
8:50 PM,15.8,14.0,93,30.18,3.0,Calm,Calm,-,N/A,,Haze,0,2013-01-08 03:50:00
9:15 PM,17.6,12.2,79,30.19,3.0,NNW,3.5,-,N/A,,Overcast,340,2013-01-08 04:15:00
9:35 PM,17.6,12.2,79,30.21,4.0,WNW,4.6,-,N/A,,Overcast,300,2013-01-08 04:35:00
9:55 PM,17.6,12.2,79,30.20,4.0,Calm,Calm,-,N/A,,Overcast,0,2013-01-08 04:55:00
10:15 PM,17.6,12.2,79,30.21,4.0,Calm,Calm,-,N/A,,Overcast,0,2013-01-08 05:15:00
10:35 PM,17.6,12.2,79,30.21,4.0,Calm,Calm,-,N/A,,Overcast,0,2013-01-08 05:35:00
10:55 PM,17.6,14.0,86,30.19,3.0,Calm,Calm,-,N/A,,Overcast,0,2013-01-08 05:55:00
11:15 PM,17.6,14.0,86,30.19,3.0,Calm,Calm,-,N/A,,Overcast,0,2013-01-08 06:15:00
11:55 PM,17.6,15.8,93,30.20,3.0,East,3.5,-,N/A,,Overcast,100,2013-01-08 06:55:00